Latest Weather Observations for Esperance

IDW60801

Issued at 5:33 am WST Tuesday 15 October 2019 (issued every 10 minutes, with the page automatically refreshed every 10 minutes)

About weather observations | Map of weather stations | Latest weather observations for WA | Other Formats
Station Details ID: 009789 Name: ESPERANCE Lat: -33.83 Lon: 121.89 Height: 25.0 m
Data from the previous 72 hours. | See also: Recent months at Esperance
Date/Time
WST
Temp
°C
App
Temp
°C
Dew
Point
°C
Rel
Hum
%
Delta-T
°C
Wind Press
QNH
hPa
Press
MSL
hPa
Rain since
9am
mm
Dir  Spd
km/h
Gust
km/h
Spd
kts
Gust
kts
15/05:30am 9.7 7.9 9.4 98 0.1 N 9 13 5 7 1020.0 1019.9 0.8
15/05:00am 9.6 8.1 9.0 96 0.3 NNE 7 9 4 5 1019.9 1019.8 0.8
15/04:30am 10.0 8.2 9.4 96 0.3 N 9 11 5 6 1019.6 1019.5 0.8
15/04:00am 10.0 8.2 9.4 96 0.3 N 9 13 5 7 1019.6 1019.5 0.8
15/03:33am 10.1 8.6 9.3 95 0.4 NE 7 11 4 6 1019.5 1019.4 0.8
15/03:30am 10.1 8.8 9.3 95 0.4 NE 6 9 3 5 1019.5 1019.4 0.8
15/03:00am 9.9 8.9 8.7 92 0.6 WNW 4 7 2 4 1019.5 1019.4 0.6
15/02:48am 9.9 8.5 8.7 92 0.6 SW 6 9 3 5 1019.5 1019.4 0.2
15/02:30am 10.0 8.4 8.8 92 0.6 WNW 7 11 4 6 1019.4 1019.3 0.0
15/02:00am 9.2 7.4 8.0 92 0.6 WNW 7 13 4 7 1019.5 1019.4 0.0
15/01:30am 9.5 7.7 8.1 91 0.7 NW 7 9 4 5 1019.6 1019.5 0.0
15/01:00am 9.4 7.8 7.8 90 0.8 NNW 6 7 3 4 1019.8 1019.7 0.0
15/12:30am 9.6 7.8 7.9 89 0.8 N 7 9 4 5 1019.9 1019.8 0.0
15/12:00am 9.9 7.8 8.2 89 0.8 NNW 9 11 5 6 1020.0 1019.9 0.0
 
Date/Time
WST
Temp
°C
App
Temp
°C
Dew
Point
°C
Rel
Hum
%
Delta-T
°C
Wind Press
QNH
hPa
Press
MSL
hPa
Rain since
9am
mm
Dir  Spd
km/h
Gust
km/h
Spd
kts
Gust
kts
14/11:30pm 10.4 8.8 8.0 85 1.2 N 6 7 3 4 1020.2 1020.1 0.0
14/11:00pm 10.7 8.6 8.3 85 1.2 NNW 9 9 5 5 1020.3 1020.2 0.0
14/10:30pm 11.2 9.5 8.4 83 1.4 NNE 7 9 4 5 1020.3 1020.2 0.0
14/10:00pm 12.0 10.5 8.5 79 1.7 SSW 6 9 3 5 1020.3 1020.2 0.0
14/09:30pm 12.7 11.2 8.4 75 2.1 S 6 7 3 4 1020.5 1020.4 0.0
14/09:00pm 13.0 11.0 8.5 74 2.2 S 9 13 5 7 1020.6 1020.5 0.0
14/08:30pm 13.3 11.3 8.8 74 2.3 SSE 9 13 5 7 1020.5 1020.4 0.0
14/08:00pm 13.3 11.4 9.2 76 2.1 SSE 9 13 5 7 1020.3 1020.2 0.0
14/07:30pm 13.0 10.6 8.7 75 2.2 SSE 11 17 6 9 1020.1 1020.0 0.0
14/07:00pm 13.2 10.6 9.3 77 2.0 SSE 13 17 7 9 1019.7 1019.6 0.0
14/06:30pm 13.3 9.9 9.2 76 2.1 SSE 17 20 9 11 1019.5 1019.4 0.0
14/06:00pm 13.2 9.8 9.3 77 2.0 S 17 24 9 13 1019.2 1019.1 0.0
14/05:30pm 13.1 8.8 9.5 79 1.8 SSE 22 33 12 18 1018.7 1018.6 0.0
14/05:00pm 13.1 9.5 9.9 81 1.6 SSE 19 26 10 14 1018.3 1018.2 0.0
14/04:53pm 13.0 9.4 10.5 85 1.3 S 20 30 11 16 1018.2 1018.1 0.0
14/04:30pm 13.0 8.8 11.1 88 1.0 S 24 35 13 19 1017.8 1017.7 0.0
14/04:23pm 13.3 8.9 10.5 83 1.5 SSE 24 33 13 18 1017.7 1017.6 0.0
14/04:00pm 13.9 9.9 10.3 79 1.9 SSE 22 35 12 19 1017.3 1017.2 0.0
14/03:30pm 14.3 10.5 11.1 81 1.7 SSE 22 32 12 17 1017.0 1016.9 0.0
14/03:00pm 14.8 10.2 11.2 79 1.9 SSE 26 33 14 18 1016.8 1016.7 0.0
14/02:30pm 15.8 11.4 11.8 77 2.2 SSE 26 33 14 18 1016.4 1016.3 0.0
14/02:14pm 15.2 10.3 11.4 78 2.0 SSE 28 35 15 19 1016.1 1016.0 0.0
14/02:09pm 15.7 11.0 12.1 79 2.0 SSE 28 35 15 19 1016.1 1016.0 0.0
14/02:00pm 15.0 11.1 12.0 82 1.6 SSE 24 32 13 17 1016.1 1016.0 0.0
14/01:54pm 15.2 11.4 12.3 83 1.6 SSE 24 32 13 17 1016.0 1015.9 0.0
14/01:30pm 14.9 10.8 11.3 79 1.9 SSE 24 33 13 18 1016.2 1016.1 0.0
14/01:00pm 16.1 11.1 11.1 72 2.7 SSE 28 35 15 19 1015.9 1015.8 0.0
14/12:30pm 16.6 11.7 11.3 71 2.9 SSE 28 35 15 19 1016.0 1015.9 0.0
14/12:00pm 16.9 12.1 11.6 71 2.9 SSE 28 35 15 19 1016.3 1016.2 0.0
14/11:30am 16.6 12.1 11.5 72 2.8 SSE 26 35 14 19 1016.3 1016.2 0.0
14/11:15am 16.5 11.2 11.4 72 2.8 SSE 30 39 16 21 1016.4 1016.3 0.0
14/11:04am 16.5 11.7 11.6 73 2.7 SSE 28 35 15 19 1016.4 1016.3 0.0
14/11:00am 16.5 12.2 11.9 74 2.5 SSE 26 35 14 19 1016.5 1016.4 0.0
14/10:30am 17.4 13.9 12.3 72 2.8 SSE 22 32 12 17 1016.8 1016.7 0.0
14/10:00am 17.3 14.2 9.0 58 4.3 SSE 15 20 8 11 1016.9 1016.8 0.0
14/09:30am 17.0 13.6 9.2 60 4.1 S 17 22 9 12 1017.0 1016.9 0.0
14/09:00am 16.6 14.2 8.8 60 4.0 SSE 11 20 6 11 1016.9 1016.8 0.0
14/08:30am 15.9 14.8 8.6 62 3.7 SSE 4 7 2 4 1016.9 1016.8 0.0
14/08:00am 14.4 12.9 9.0 70 2.7 NW 7 11 4 6 1016.7 1016.6 0.0
14/07:30am 12.6 11.6 10.3 86 1.2 N 6 7 3 4 1016.5 1016.4 0.0
14/07:00am 11.3 10.5 11.1 99 0.1 NNE 6 9 3 5 1016.4 1016.3 0.0
14/06:30am 9.9 8.8 9.8 99 0.1 NNE 6 9 3 5 1016.1 1016.0 0.0
14/06:00am 9.5 8.1 9.4 99 0.0 N 7 7 4 4 1016.0 1015.9 0.0
14/05:57am 9.4 7.9 9.3 99 0.0 N 7 7 4 4 1016.0 1015.9 0.0
14/05:30am 8.9 7.3 8.8 99 0.0 N 7 7 4 4 1015.7 1015.6 0.0
14/05:00am 9.4 8.1 9.3 99 0.0 NNE 6 7 3 4 1015.5 1015.4 0.0
14/04:54am 9.4 7.9 9.3 99 0.0 NNE 7 9 4 5 1015.3 1015.3 0.0
14/04:30am 9.8 8.4 9.5 98 0.1 NNE 7 9 4 5 1015.1 1015.1 0.0
14/04:00am 9.6 9.4 9.1 97 0.2 CALM 0 0 0 0 1015.1 1015.1 0.0
14/03:30am 9.5 8.0 9.0 97 0.2 SW 7 11 4 6 1015.0 1015.0 0.0
14/03:00am 9.6 8.1 9.0 96 0.3 SSW 7 9 4 5 1015.0 1015.0 0.0
14/02:30am 9.8 9.3 9.2 96 0.3 NNW 2 7 1 4 1014.9 1014.9 0.0
14/02:00am 10.1 8.8 9.3 95 0.4 NNE 6 7 3 4 1015.0 1015.0 0.0
14/01:30am 10.7 10.6 9.6 93 0.6 CALM 0 7 0 4 1015.1 1015.1 0.0
14/01:00am 11.2 10.4 9.6 90 0.8 NNE 4 7 2 4 1015.3 1015.3 0.0
14/12:30am 11.7 11.6 9.6 87 1.1 CALM 0 0 0 0 1015.5 1015.4 0.0
14/12:00am 11.6 11.4 9.2 85 1.2 CALM 0 0 0 0 1015.8 1015.7 0.0
 
Date/Time
WST
Temp
°C
App
Temp
°C
Dew
Point
°C
Rel
Hum
%
Delta-T
°C
Wind Press
QNH
hPa
Press
MSL
hPa
Rain since
9am
mm
Dir  Spd
km/h
Gust
km/h
Spd
kts
Gust
kts
13/11:30pm 12.4 12.3 9.6 83 1.4 CALM 0 0 0 0 1016.0 1015.9 0.0
13/11:00pm 12.3 12.2 9.5 83 1.4 CALM 0 0 0 0 1016.2 1016.1 0.0
13/10:30pm 12.8 12.0 9.6 81 1.6 N 4 6 2 3 1016.2 1016.1 0.0
13/10:00pm 12.5 11.8 10.0 85 1.3 N 4 6 2 3 1016.1 1016.0 0.0
13/09:30pm 13.2 12.1 10.0 81 1.6 N 6 9 3 5 1016.1 1016.0 0.0
13/09:00pm 13.3 11.3 10.1 81 1.7 NNE 11 13 6 7 1015.8 1015.7 0.0
13/08:30pm 14.0 11.7 10.4 79 1.9 NNE 13 15 7 8 1015.7 1015.6 0.0
13/08:00pm 14.5 13.0 10.7 78 2.0 NNE 9 11 5 6 1015.6 1015.5 0.0
13/07:30pm 15.4 13.7 10.0 70 2.8 NE 9 9 5 5 1015.6 1015.5 0.0
13/07:00pm 15.8 14.1 9.9 68 3.1 SE 9 11 5 6 1015.2 1015.2 0.0
13/06:30pm 16.2 14.8 9.6 65 3.4 SE 7 11 4 6 1015.2 1015.2 0.0
13/06:00pm 16.6 14.4 9.3 62 3.8 S 11 13 6 7 1014.9 1014.9 0.0
13/05:30pm 17.2 14.9 9.1 59 4.2 S 11 17 6 9 1014.6 1014.6 0.0
13/05:00pm 17.8 14.4 9.2 57 4.5 S 17 24 9 13 1014.3 1014.3 0.0
13/04:30pm 18.6 15.2 9.1 54 5.0 S 17 24 9 13 1014.2 1014.2 0.0
13/04:00pm 18.9 15.3 9.9 56 4.8 S 19 28 10 15 1014.1 1014.1 0.0
13/03:30pm 18.8 15.4 9.3 54 5.0 S 17 24 9 13 1014.1 1014.1 0.0
13/03:00pm 20.0 17.7 10.4 54 5.2 S 13 20 7 11 1014.0 1014.0 0.0
13/02:30pm 19.3 15.6 10.3 56 4.8 SSE 20 24 11 13 1014.2 1014.2 0.0
13/02:00pm 19.9 17.9 10.0 53 5.3 SSE 11 17 6 9 1014.4 1014.4 0.0
13/01:30pm 21.2 17.6 8.5 44 6.7 WNW 17 28 9 15 1014.6 1014.6 0.0
13/01:00pm 20.8 17.1 8.1 44 6.6 NW 17 24 9 13 1015.1 1015.1 0.0
13/12:30pm 20.2 16.3 8.5 47 6.1 NNW 19 28 10 15 1015.3 1015.3 0.0
13/12:00pm 19.6 16.1 8.6 49 5.7 NW 17 28 9 15 1016.0 1015.9 0.0
13/11:30am 20.3 17.0 9.5 50 5.8 NW 17 24 9 13 1016.3 1016.2 0.0
13/11:00am 20.0 16.4 9.9 52 5.4 NW 19 26 10 14 1016.6 1016.5 0.0
13/10:30am 19.0 15.7 9.5 54 5.0 WNW 17 24 9 13 1017.2 1017.1 0.0
13/10:00am 18.3 15.6 9.1 55 4.8 NW 13 19 7 10 1017.5 1017.4 0.0
13/09:30am 17.8 14.3 8.9 56 4.6 NW 17 24 9 13 1017.6 1017.5 0.0
13/09:00am 17.3 14.2 8.7 57 4.4 NNW 15 22 8 12 1017.7 1017.6 2.2
13/08:30am 16.4 13.4 9.3 63 3.7 N 15 19 8 10 1017.7 1017.6 2.2
13/08:00am 15.5 13.4 9.8 69 3.0 N 11 15 6 8 1017.4 1017.3 2.2
13/07:30am 13.5 12.1 10.9 84 1.4 NW 9 11 5 6 1017.3 1017.2 2.2
13/07:00am 11.8 10.9 11.2 96 0.3 NNW 7 9 4 5 1017.4 1017.3 2.0
13/06:30am 10.0 8.7 9.9 99 0.1 NNW 7 9 4 5 1017.2 1017.1 2.0
13/06:00am 8.7 7.2 8.4 98 0.1 NW 6 7 3 4 1017.0 1016.9 2.0
13/05:30am 8.4 6.6 8.1 98 0.1 NW 7 9 4 5 1016.9 1016.8 2.0
13/05:00am 8.0 5.7 7.6 97 0.2 WNW 9 11 5 6 1016.7 1016.6 2.0
13/04:30am 8.2 5.9 7.6 96 0.3 WNW 9 11 5 6 1016.6 1016.5 2.0
13/04:00am 8.0 5.6 7.2 95 0.4 WNW 9 11 5 6 1016.4 1016.3 2.0
13/03:30am 8.3 5.9 7.2 93 0.5 W 9 11 5 6 1016.3 1016.2 2.0
13/03:00am 8.7 7.0 7.6 93 0.5 W 6 7 3 4 1016.2 1016.1 2.0
13/02:30am 9.1 7.3 8.0 93 0.5 W 7 9 4 5 1016.3 1016.2 2.0
13/02:00am 9.3 7.6 8.2 93 0.5 NNW 7 9 4 5 1016.5 1016.4 2.0
13/01:30am 9.9 8.3 8.8 93 0.5 NW 7 9 4 5 1016.8 1016.7 2.0
13/01:00am 10.2 8.2 8.8 91 0.7 WNW 9 9 5 5 1017.0 1016.9 2.0
13/12:30am 10.1 8.4 8.5 90 0.8 W 7 9 4 5 1017.3 1017.2 2.0
13/12:00am 10.4 8.0 8.5 88 0.9 WSW 11 13 6 7 1017.6 1017.5 2.0
 
Date/Time
WST
Temp
°C
App
Temp
°C
Dew
Point
°C
Rel
Hum
%
Delta-T
°C
Wind Press
QNH
hPa
Press
MSL
hPa
Rain since
9am
mm
Dir  Spd
km/h
Gust
km/h
Spd
kts
Gust
kts
12/11:30pm 10.9 8.9 8.8 87 1.0 WSW 9 11 5 6 1017.8 1017.7 2.0
12/11:00pm 11.2 9.9 9.3 88 0.9 W 6 7 3 4 1017.8 1017.7 2.0
12/10:30pm 11.6 9.8 9.5 87 1.1 W 9 9 5 5 1018.2 1018.1 2.0
12/10:00pm 12.2 10.8 9.4 83 1.4 WSW 7 9 4 5 1018.3 1018.2 2.0
12/09:30pm 12.6 11.2 9.4 81 1.6 SW 7 9 4 5 1018.2 1018.1 2.0
12/09:00pm 12.8 11.4 9.6 81 1.6 SW 7 9 4 5 1018.3 1018.2 2.0
12/08:30pm 13.2 11.9 9.8 80 1.7 SW 7 9 4 5 1018.4 1018.3 2.0
12/08:00pm 13.3 11.9 9.7 79 1.8 SW 7 9 4 5 1018.1 1018.0 2.0
12/07:30pm 13.6 11.9 10.0 79 1.9 SSW 9 13 5 7 1017.6 1017.5 2.0
12/07:00pm 13.9 11.9 10.3 79 1.9 SSW 11 15 6 8 1017.4 1017.3 2.0
12/06:30pm 14.2 11.9 10.6 79 1.9 S 13 17 7 9 1016.8 1016.7 2.0
12/06:00pm 14.7 13.6 10.5 76 2.2 S 7 11 4 6 1016.4 1016.3 2.0
12/05:30pm 14.9 12.9 10.3 74 2.4 SSW 11 17 6 9 1016.3 1016.2 2.0
12/05:00pm 15.2 12.8 10.2 72 2.6 S 13 19 7 10 1016.0 1015.9 2.0
12/04:30pm 15.4 12.8 9.5 68 3.1 S 13 17 7 9 1015.7 1015.6 2.0
12/04:00pm 15.2 12.5 10.2 72 2.6 S 15 24 8 13 1015.6 1015.5 2.0
12/03:30pm 14.9 11.5 10.7 76 2.2 SSW 19 28 10 15 1015.5 1015.4 2.0
12/03:10pm 14.6 12.4 12.1 85 1.4 SSW 15 24 8 13 1015.6 1015.5 2.0
12/03:00pm 14.4 11.9 12.4 88 1.1 SSW 17 24 9 13 1015.7 1015.6 2.0
12/02:52pm 14.1 11.1 12.1 88 1.1 SSW 19 28 10 15 1015.7 1015.6 2.0
12/02:30pm 14.1 11.8 13.0 93 0.6 S 17 22 9 12 1015.5 1015.4 2.0
12/02:21pm 14.2 12.0 13.4 95 0.4 SSW 17 24 9 13 1015.5 1015.4 2.0
12/02:20pm 14.2 12.0 13.4 95 0.4 SSW 17 24 9 13 1015.5 1015.4 2.0
12/02:11pm 13.9 11.2 13.0 94 0.5 SSW 19 30 10 16 1015.2 1015.2 2.0
12/02:00pm 14.0 10.8 13.1 94 0.5 S 22 33 12 18 1015.1 1015.1 1.8
12/01:36pm 14.1 10.8 11.6 85 1.3 S 20 32 11 17 1015.0 1015.0 0.8
12/01:30pm 15.1 12.0 11.7 80 1.8 S 19 28 10 15 1014.9 1014.9 0.6
12/01:00pm 15.7 13.0 10.2 70 2.9 SSE 15 22 8 12 1015.0 1015.0 0.6
12/12:30pm 15.3 12.8 11.1 76 2.2 SSE 15 22 8 12 1015.2 1015.2 0.6
12/12:00pm 15.0 13.6 12.3 84 1.5 S 11 17 6 9 1015.7 1015.6 0.6
12/11:30am 15.0 14.7 13.2 89 1.0 SSW 7 11 4 6 1015.8 1015.7 0.6
12/11:00am 14.6 13.3 12.6 88 1.1 SW 11 15 6 8 1016.9 1016.8 0.6
12/10:30am 14.8 14.2 13.5 92 0.7 S 9 13 5 7 1016.2 1016.1 0.6
12/10:24am 14.5 14.5 13.7 95 0.4 SSE 6 13 3 7 1016.7 1016.6 0.6
12/10:07am 14.8 15.4 14.3 97 0.3 NE 4 7 2 4 1016.8 1016.7 0.6
12/10:00am 14.3 14.2 13.8 97 0.3 ESE 7 11 4 6 1016.4 1016.3 0.6
12/09:47am 14.4 12.8 13.9 97 0.3 SE 15 30 8 16 1016.5 1016.4 0.4
12/09:31am 14.7 15.0 14.4 98 0.2 WNW 6 7 3 4 1016.2 1016.1 0.2
12/09:30am 14.6 14.8 14.3 98 0.2 NW 6 7 3 4 1016.1 1016.0 0.2
12/09:00am 14.7 14.8 14.5 99 0.1 NW 7 11 4 6 1016.3 1016.2 11.0
12/08:32am 14.5 15.9 14.3 99 0.1 CALM 0 0 0 0 1015.9 1015.8 10.6
12/08:30am 14.5 15.9 14.3 99 0.1 CALM 0 0 0 0 1015.8 1015.7 10.6
12/08:05am 14.2 15.5 14.0 99 0.1 CALM 0 0 0 0 1016.0 1015.9 9.8
12/08:00am 14.4 15.4 14.2 99 0.1 NW 2 9 1 5 1016.0 1015.9 9.6
12/07:30am 14.4 14.4 14.2 99 0.1 WSW 7 9 4 5 1016.7 1016.6 9.0
12/07:00am 14.2 14.1 13.9 98 0.2 W 7 9 4 5 1016.7 1016.6 8.6
12/06:39am 14.1 14.9 13.8 98 0.2 WSW 2 6 1 3 1015.9 1015.8 8.6
12/06:30am 14.1 14.2 13.8 98 0.2 WSW 6 9 3 5 1016.0 1015.9 8.4
12/06:15am 14.2 15.4 13.7 97 0.3 CALM 0 0 0 0 1015.7 1015.6 7.8
12/06:00am 14.2 14.2 13.7 97 0.3 - 6 11 3 6 1015.6 1015.5 7.2

Other formats

Comma delimited format used in spreadsheet applications
http://www.bom.gov.au/fwo/IDW60801/IDW60801.94638.axf

JavaScript Object Notation format (JSON) in row-major order
http://www.bom.gov.au/fwo/IDW60801/IDW60801.94638.json

Data quality

Most of these data are generated automatically and are frequently updated. Quality checks on data are not normally performed. It is possible for incorrect values to appear. Refer to information at About Latest Weather Observations and please check the disclaimer before using these data.